sensor_id;sensor_type;location;lat;lon;timestamp;pressure;altitude;pressure_sealevel;temperature;humidity
15487;BME280;7845;53.698;10.078;2023-07-29T00:00:37;99992.31;;;21.48;100.00
15487;BME280;7845;53.698;10.078;2023-07-29T00:03:02;99996.91;;;21.32;100.00
15487;BME280;7845;53.698;10.078;2023-07-29T00:05:28;99998.84;;;21.02;100.00
15487;BME280;7845;53.698;10.078;2023-07-29T00:07:53;99995.03;;;20.91;100.00
15487;BME280;7845;53.698;10.078;2023-07-29T00:10:18;99996.19;;;20.87;100.00
15487;BME280;7845;53.698;10.078;2023-07-29T00:12:44;100001.50;;;20.87;100.00
15487;BME280;7845;53.698;10.078;2023-07-29T00:15:11;99991.25;;;20.95;100.00
15487;BME280;7845;53.698;10.078;2023-07-29T00:17:36;99993.44;;;20.89;100.00
15487;BME280;7845;53.698;10.078;2023-07-29T00:20:02;99987.94;;;20.78;100.00
15487;BME280;7845;53.698;10.078;2023-07-29T00:22:27;99988.59;;;20.67;100.00
15487;BME280;7845;53.698;10.078;2023-07-29T00:24:53;99980.84;;;20.64;100.00
15487;BME280;7845;53.698;10.078;2023-07-29T00:27:20;99982.34;;;20.68;100.00
15487;BME280;7845;53.698;10.078;2023-07-29T00:29:46;99984.63;;;20.74;100.00
15487;BME280;7845;53.698;10.078;2023-07-29T00:32:12;99981.88;;;20.76;100.00
15487;BME280;7845;53.698;10.078;2023-07-29T00:34:40;99974.28;;;20.70;100.00
15487;BME280;7845;53.698;10.078;2023-07-29T00:37:09;99974.78;;;20.76;100.00
15487;BME280;7845;53.698;10.078;2023-07-29T00:39:37;99969.66;;;20.87;100.00
15487;BME280;7845;53.698;10.078;2023-07-29T00:42:04;99963.84;;;20.95;100.00
15487;BME280;7845;53.698;10.078;2023-07-29T00:44:29;99961.69;;;21.02;100.00
15487;BME280;7845;53.698;10.078;2023-07-29T00:47:02;99963.94;;;21.22;100.00
15487;BME280;7845;53.698;10.078;2023-07-29T00:49:29;99951.78;;;21.32;100.00
15487;BME280;7845;53.698;10.078;2023-07-29T00:51:55;99950.59;;;21.36;100.00
15487;BME280;7845;53.698;10.078;2023-07-29T00:54:21;99955.63;;;21.40;100.00
15487;BME280;7845;53.698;10.078;2023-07-29T00:56:46;99951.59;;;21.35;100.00
15487;BME280;7845;53.698;10.078;2023-07-29T00:59:12;99951.66;;;21.33;100.00
15487;BME280;7845;53.698;10.078;2023-07-29T01:01:41;99946.75;;;21.27;100.00
15487;BME280;7845;53.698;10.078;2023-07-29T01:04:09;99938.50;;;21.32;100.00
15487;BME280;7845;53.698;10.078;2023-07-29T01:14:32;99937.31;;;21.23;100.00
15487;BME280;7845;53.698;10.078;2023-07-29T01:17:09;99934.28;;;21.15;100.00
15487;BME280;7845;53.698;10.078;2023-07-29T01:19:59;99928.44;;;20.96;100.00
15487;BME280;7845;53.698;10.078;2023-07-29T01:22:26;99929.16;;;20.98;100.00
15487;BME280;7845;53.698;10.078;2023-07-29T01:24:52;99932.63;;;21.27;100.00
15487;BME280;7845;53.698;10.078;2023-07-29T01:27:18;99927.97;;;21.30;100.00
15487;BME280;7845;53.698;10.078;2023-07-29T01:29:43;99928.81;;;21.31;100.00
15487;BME280;7845;53.698;10.078;2023-07-29T01:32:20;99931.63;;;21.42;100.00
15487;BME280;7845;53.698;10.078;2023-07-29T01:34:57;99934.41;;;21.40;100.00
15487;BME280;7845;53.698;10.078;2023-07-29T01:37:26;99925.06;;;21.21;100.00
15487;BME280;7845;53.698;10.078;2023-07-29T01:39:56;99920.34;;;21.12;100.00
15487;BME280;7845;53.698;10.078;2023-07-29T01:42:22;99920.53;;;21.23;100.00
15487;BME280;7845;53.698;10.078;2023-07-29T01:44:48;99913.09;;;21.28;100.00
15487;BME280;7845;53.698;10.078;2023-07-29T01:47:13;99904.84;;;21.32;100.00
15487;BME280;7845;53.698;10.078;2023-07-29T01:49:39;99907.50;;;21.32;100.00
15487;BME280;7845;53.698;10.078;2023-07-29T01:52:04;99916.88;;;21.38;100.00
15487;BME280;7845;53.698;10.078;2023-07-29T01:54:30;99916.91;;;22.02;100.00
15487;BME280;7845;53.698;10.078;2023-07-29T01:56:55;99917.91;;;21.62;100.00
15487;BME280;7845;53.698;10.078;2023-07-29T01:59:20;99919.66;;;21.49;100.00
15487;BME280;7845;53.698;10.078;2023-07-29T02:01:46;99924.66;;;21.53;100.00
15487;BME280;7845;53.698;10.078;2023-07-29T02:04:12;99931.19;;;21.62;100.00
15487;BME280;7845;53.698;10.078;2023-07-29T02:06:37;99928.19;;;21.67;100.00
15487;BME280;7845;53.698;10.078;2023-07-29T02:09:02;99921.28;;;22.03;100.00
15487;BME280;7845;53.698;10.078;2023-07-29T02:11:30;99921.94;;;22.45;100.00
15487;BME280;7845;53.698;10.078;2023-07-29T02:13:57;99919.91;;;22.11;100.00
15487;BME280;7845;53.698;10.078;2023-07-29T02:16:24;99920.72;;;21.86;100.00
15487;BME280;7845;53.698;10.078;2023-07-29T02:18:49;99918.66;;;21.77;100.00
15487;BME280;7845;53.698;10.078;2023-07-29T02:21:15;99918.47;;;21.80;100.00
15487;BME280;7845;53.698;10.078;2023-07-29T02:23:41;99916.09;;;21.75;100.00
15487;BME280;7845;53.698;10.078;2023-07-29T02:26:07;99924.34;;;21.58;100.00
15487;BME280;7845;53.698;10.078;2023-07-29T02:28:35;99922.84;;;21.54;100.00
15487;BME280;7845;53.698;10.078;2023-07-29T02:33:39;99916.81;;;21.25;100.00
15487;BME280;7845;53.698;10.078;2023-07-29T02:36:04;99920.81;;;21.18;100.00
15487;BME280;7845;53.698;10.078;2023-07-29T02:38:30;99917.50;;;21.15;100.00
15487;BME280;7845;53.698;10.078;2023-07-29T02:40:55;99921.56;;;21.20;100.00
15487;BME280;7845;53.698;10.078;2023-07-29T02:43:20;99925.44;;;21.29;100.00
15487;BME280;7845;53.698;10.078;2023-07-29T02:45:47;99926.81;;;21.34;100.00
15487;BME280;7845;53.698;10.078;2023-07-29T02:48:13;99928.75;;;21.45;100.00
15487;BME280;7845;53.698;10.078;2023-07-29T02:50:38;99917.09;;;21.47;100.00
15487;BME280;7845;53.698;10.078;2023-07-29T02:53:04;99925.81;;;21.49;100.00
15487;BME280;7845;53.698;10.078;2023-07-29T02:55:29;99926.16;;;21.58;100.00
15487;BME280;7845;53.698;10.078;2023-07-29T02:57:54;99920.75;;;22.24;100.00
15487;BME280;7845;53.698;10.078;2023-07-29T03:00:20;99910.25;;;21.70;100.00
15487;BME280;7845;53.698;10.078;2023-07-29T03:02:45;99918.94;;;21.60;100.00
15487;BME280;7845;53.698;10.078;2023-07-29T03:05:11;99924.88;;;21.63;100.00
15487;BME280;7845;53.698;10.078;2023-07-29T03:07:38;99930.53;;;21.59;100.00
15487;BME280;7845;53.698;10.078;2023-07-29T03:10:06;99936.91;;;21.56;100.00
15487;BME280;7845;53.698;10.078;2023-07-29T03:12:31;99939.22;;;21.61;100.00
15487;BME280;7845;53.698;10.078;2023-07-29T03:14:56;99940.75;;;21.65;100.00
15487;BME280;7845;53.698;10.078;2023-07-29T03:17:22;99941.28;;;21.70;100.00
15487;BME280;7845;53.698;10.078;2023-07-29T03:19:47;99947.13;;;21.75;100.00
15487;BME280;7845;53.698;10.078;2023-07-29T03:22:13;99955.75;;;21.78;100.00
15487;BME280;7845;53.698;10.078;2023-07-29T03:24:39;99952.25;;;21.78;100.00
15487;BME280;7845;53.698;10.078;2023-07-29T03:27:05;99948.31;;;21.83;100.00
15487;BME280;7845;53.698;10.078;2023-07-29T03:29:30;99949.75;;;21.89;100.00
15487;BME280;7845;53.698;10.078;2023-07-29T03:31:56;99952.59;;;21.86;100.00
15487;BME280;7845;53.698;10.078;2023-07-29T03:34:21;99960.66;;;21.84;100.00
15487;BME280;7845;53.698;10.078;2023-07-29T03:36:46;99963.88;;;21.89;100.00
15487;BME280;7845;53.698;10.078;2023-07-29T03:39:14;99962.94;;;21.90;100.00
15487;BME280;7845;53.698;10.078;2023-07-29T03:41:39;99957.41;;;21.93;100.00
15487;BME280;7845;53.698;10.078;2023-07-29T03:44:05;99965.50;;;21.92;100.00
15487;BME280;7845;53.698;10.078;2023-07-29T03:46:31;99961.78;;;21.94;100.00
15487;BME280;7845;53.698;10.078;2023-07-29T03:48:57;99956.16;;;21.99;100.00
15487;BME280;7845;53.698;10.078;2023-07-29T03:51:23;99951.59;;;22.01;100.00
15487;BME280;7845;53.698;10.078;2023-07-29T03:53:49;99954.03;;;22.04;100.00
15487;BME280;7845;53.698;10.078;2023-07-29T03:56:15;99946.28;;;22.01;100.00
15487;BME280;7845;53.698;10.078;2023-07-29T03:58:41;99954.56;;;22.09;100.00
15487;BME280;7845;53.698;10.078;2023-07-29T04:01:08;99952.44;;;22.14;100.00
15487;BME280;7845;53.698;10.078;2023-07-29T04:03:33;99952.97;;;22.19;100.00
15487;BME280;7845;53.698;10.078;2023-07-29T04:05:59;99949.16;;;22.23;100.00
15487;BME280;7845;53.698;10.078;2023-07-29T04:08:25;99945.56;;;22.24;100.00
15487;BME280;7845;53.698;10.078;2023-07-29T04:10:50;99947.22;;;22.25;100.00
15487;BME280;7845;53.698;10.078;2023-07-29T04:13:16;99944.38;;;22.28;100.00
15487;BME280;7845;53.698;10.078;2023-07-29T04:15:41;99950.13;;;22.35;100.00
15487;BME280;7845;53.698;10.078;2023-07-29T04:18:06;99941.72;;;22.41;100.00
15487;BME280;7845;53.698;10.078;2023-07-29T04:20:32;99946.72;;;22.45;100.00
15487;BME280;7845;53.698;10.078;2023-07-29T04:23:01;99938.19;;;22.53;100.00
15487;BME280;7845;53.698;10.078;2023-07-29T04:25:27;99944.78;;;22.60;100.00
15487;BME280;7845;53.698;10.078;2023-07-29T04:27:53;99939.34;;;23.23;100.00
15487;BME280;7845;53.698;10.078;2023-07-29T04:30:18;99915.78;;;22.70;100.00
15487;BME280;7845;53.698;10.078;2023-07-29T04:32:44;99927.56;;;22.66;100.00
15487;BME280;7845;53.698;10.078;2023-07-29T04:35:10;99937.28;;;22.67;100.00
15487;BME280;7845;53.698;10.078;2023-07-29T04:37:35;99941.53;;;22.69;100.00
15487;BME280;7845;53.698;10.078;2023-07-29T04:40:03;99936.94;;;22.71;100.00
15487;BME280;7845;53.698;10.078;2023-07-29T04:42:28;99933.19;;;22.74;100.00
15487;BME280;7845;53.698;10.078;2023-07-29T04:44:57;99931.91;;;22.79;100.00
15487;BME280;7845;53.698;10.078;2023-07-29T04:47:22;99934.25;;;22.84;100.00
15487;BME280;7845;53.698;10.078;2023-07-29T04:49:49;99934.44;;;22.93;100.00
15487;BME280;7845;53.698;10.078;2023-07-29T04:52:17;99929.63;;;22.98;100.00
15487;BME280;7845;53.698;10.078;2023-07-29T04:54:44;99920.47;;;23.02;100.00
15487;BME280;7845;53.698;10.078;2023-07-29T04:57:10;99924.09;;;23.01;100.00
15487;BME280;7845;53.698;10.078;2023-07-29T04:59:37;99912.13;;;23.07;100.00
15487;BME280;7845;53.698;10.078;2023-07-29T05:02:02;99909.25;;;23.10;100.00
15487;BME280;7845;53.698;10.078;2023-07-29T05:04:34;99908.72;;;23.18;100.00
15487;BME280;7845;53.698;10.078;2023-07-29T05:07:00;99904.34;;;23.17;100.00
15487;BME280;7845;53.698;10.078;2023-07-29T05:09:26;99905.81;;;23.21;100.00
15487;BME280;7845;53.698;10.078;2023-07-29T05:11:54;99907.41;;;23.23;100.00
15487;BME280;7845;53.698;10.078;2023-07-29T05:14:19;99906.19;;;23.27;100.00
15487;BME280;7845;53.698;10.078;2023-07-29T05:16:44;99908.75;;;23.41;100.00
15487;BME280;7845;53.698;10.078;2023-07-29T05:19:10;99899.75;;;23.42;100.00
15487;BME280;7845;53.698;10.078;2023-07-29T05:21:37;99896.41;;;23.51;100.00
15487;BME280;7845;53.698;10.078;2023-07-29T05:24:03;99890.63;;;23.57;100.00
15487;BME280;7845;53.698;10.078;2023-07-29T05:26:30;99888.34;;;23.64;100.00
15487;BME280;7845;53.698;10.078;2023-07-29T05:28:55;99879.41;;;23.65;100.00
15487;BME280;7845;53.698;10.078;2023-07-29T05:31:21;99876.16;;;23.84;100.00
15487;BME280;7845;53.698;10.078;2023-07-29T05:33:47;99868.19;;;23.95;100.00
15487;BME280;7845;53.698;10.078;2023-07-29T05:36:12;99868.31;;;24.04;100.00
15487;BME280;7845;53.698;10.078;2023-07-29T05:38:39;99864.16;;;24.13;100.00
15487;BME280;7845;53.698;10.078;2023-07-29T05:41:04;99858.56;;;24.38;100.00
15487;BME280;7845;53.698;10.078;2023-07-29T05:43:31;99854.56;;;24.55;100.00
15487;BME280;7845;53.698;10.078;2023-07-29T05:45:57;99859.03;;;24.21;100.00
15487;BME280;7845;53.698;10.078;2023-07-29T05:48:24;99850.69;;;24.37;100.00
15487;BME280;7845;53.698;10.078;2023-07-29T05:50:49;99851.03;;;24.43;100.00
15487;BME280;7845;53.698;10.078;2023-07-29T05:53:15;99844.38;;;24.49;100.00
15487;BME280;7845;53.698;10.078;2023-07-29T05:55:40;99839.50;;;24.65;100.00
15487;BME280;7845;53.698;10.078;2023-07-29T05:58:06;99835.59;;;24.80;100.00
15487;BME280;7845;53.698;10.078;2023-07-29T06:00:31;99820.16;;;25.06;100.00
15487;BME280;7845;53.698;10.078;2023-07-29T06:02:56;99819.75;;;25.10;100.00
15487;BME280;7845;53.698;10.078;2023-07-29T06:05:22;99812.97;;;25.27;100.00
15487;BME280;7845;53.698;10.078;2023-07-29T06:07:48;99812.22;;;25.36;100.00
15487;BME280;7845;53.698;10.078;2023-07-29T06:10:15;99819.97;;;25.39;100.00
15487;BME280;7845;53.698;10.078;2023-07-29T06:12:46;99821.75;;;25.18;100.00
15487;BME280;7845;53.698;10.078;2023-07-29T06:15:13;99821.72;;;24.97;100.00
15487;BME280;7845;53.698;10.078;2023-07-29T06:17:40;99813.50;;;24.78;100.00
15487;BME280;7845;53.698;10.078;2023-07-29T06:20:11;99817.63;;;24.71;100.00
15487;BME280;7845;53.698;10.078;2023-07-29T06:22:36;99809.63;;;24.71;100.00
15487;BME280;7845;53.698;10.078;2023-07-29T06:25:04;99804.28;;;24.71;100.00
15487;BME280;7845;53.698;10.078;2023-07-29T06:27:33;99803.03;;;24.97;100.00
15487;BME280;7845;53.698;10.078;2023-07-29T06:29:58;99805.03;;;25.16;100.00
15487;BME280;7845;53.698;10.078;2023-07-29T06:32:24;99798.84;;;25.36;100.00
15487;BME280;7845;53.698;10.078;2023-07-29T06:34:49;99788.09;;;25.58;100.00
15487;BME280;7845;53.698;10.078;2023-07-29T06:37:17;99797.28;;;25.65;100.00
15487;BME280;7845;53.698;10.078;2023-07-29T06:39:43;99789.91;;;25.58;100.00
15487;BME280;7845;53.698;10.078;2023-07-29T06:42:08;99797.25;;;25.45;100.00
15487;BME280;7845;53.698;10.078;2023-07-29T06:44:34;99789.69;;;25.29;100.00
15487;BME280;7845;53.698;10.078;2023-07-29T06:46:59;99782.72;;;25.38;100.00
15487;BME280;7845;53.698;10.078;2023-07-29T06:49:24;99791.09;;;25.33;100.00
15487;BME280;7845;53.698;10.078;2023-07-29T06:51:50;99790.38;;;25.31;100.00
15487;BME280;7845;53.698;10.078;2023-07-29T06:54:16;99790.91;;;25.25;100.00
15487;BME280;7845;53.698;10.078;2023-07-29T06:56:42;99781.59;;;25.19;100.00
15487;BME280;7845;53.698;10.078;2023-07-29T06:59:07;99785.81;;;25.22;100.00
15487;BME280;7845;53.698;10.078;2023-07-29T07:01:33;99787.38;;;25.24;100.00
15487;BME280;7845;53.698;10.078;2023-07-29T07:03:59;99776.41;;;25.39;100.00
15487;BME280;7845;53.698;10.078;2023-07-29T07:06:24;99778.63;;;25.54;100.00
15487;BME280;7845;53.698;10.078;2023-07-29T07:08:50;99776.59;;;25.67;100.00
15487;BME280;7845;53.698;10.078;2023-07-29T07:11:17;99782.97;;;25.76;100.00
15487;BME280;7845;53.698;10.078;2023-07-29T07:13:42;99784.09;;;25.73;100.00
15487;BME280;7845;53.698;10.078;2023-07-29T07:16:09;99785.53;;;25.77;100.00
15487;BME280;7845;53.698;10.078;2023-07-29T07:18:35;99795.94;;;25.60;100.00
15487;BME280;7845;53.698;10.078;2023-07-29T07:21:00;99795.41;;;25.45;100.00
15487;BME280;7845;53.698;10.078;2023-07-29T07:23:26;99792.94;;;25.33;100.00
15487;BME280;7845;53.698;10.078;2023-07-29T07:25:51;99795.06;;;25.18;100.00
15487;BME280;7845;53.698;10.078;2023-07-29T07:28:18;99791.13;;;25.01;100.00
15487;BME280;7845;53.698;10.078;2023-07-29T07:30:44;99803.78;;;24.88;100.00
15487;BME280;7845;53.698;10.078;2023-07-29T07:33:10;99791.19;;;24.90;100.00
15487;BME280;7845;53.698;10.078;2023-07-29T07:35:36;99793.53;;;25.04;100.00
15487;BME280;7845;53.698;10.078;2023-07-29T07:38:01;99790.63;;;25.07;100.00
15487;BME280;7845;53.698;10.078;2023-07-29T07:40:31;99789.84;;;25.16;100.00
15487;BME280;7845;53.698;10.078;2023-07-29T07:42:57;99785.63;;;25.35;100.00
15487;BME280;7845;53.698;10.078;2023-07-29T07:45:24;99781.22;;;25.45;100.00
15487;BME280;7845;53.698;10.078;2023-07-29T07:47:51;99778.84;;;25.62;100.00
15487;BME280;7845;53.698;10.078;2023-07-29T07:50:20;99786.00;;;25.62;100.00
15487;BME280;7845;53.698;10.078;2023-07-29T07:52:47;99780.31;;;25.55;100.00
15487;BME280;7845;53.698;10.078;2023-07-29T07:55:14;99775.31;;;25.62;100.00
15487;BME280;7845;53.698;10.078;2023-07-29T07:57:39;99768.63;;;25.77;100.00
15487;BME280;7845;53.698;10.078;2023-07-29T08:00:05;99772.44;;;25.74;100.00
15487;BME280;7845;53.698;10.078;2023-07-29T08:02:31;99771.56;;;25.74;100.00
15487;BME280;7845;53.698;10.078;2023-07-29T08:04:56;99777.31;;;25.69;100.00
15487;BME280;7845;53.698;10.078;2023-07-29T08:07:21;99776.47;;;25.48;100.00
15487;BME280;7845;53.698;10.078;2023-07-29T08:09:48;99776.78;;;25.34;100.00
15487;BME280;7845;53.698;10.078;2023-07-29T08:12:13;99776.44;;;25.27;100.00
15487;BME280;7845;53.698;10.078;2023-07-29T08:14:40;99778.50;;;25.24;100.00
15487;BME280;7845;53.698;10.078;2023-07-29T08:17:06;99770.66;;;25.43;100.00
15487;BME280;7845;53.698;10.078;2023-07-29T08:19:31;99770.00;;;25.51;100.00
15487;BME280;7845;53.698;10.078;2023-07-29T08:21:56;99778.34;;;25.57;100.00
15487;BME280;7845;53.698;10.078;2023-07-29T08:24:23;99776.09;;;25.21;100.00
15487;BME280;7845;53.698;10.078;2023-07-29T08:26:48;99767.03;;;25.12;100.00
15487;BME280;7845;53.698;10.078;2023-07-29T08:29:14;99767.25;;;25.41;100.00
15487;BME280;7845;53.698;10.078;2023-07-29T08:31:40;99772.72;;;25.40;100.00
15487;BME280;7845;53.698;10.078;2023-07-29T08:34:06;99768.16;;;25.30;100.00
15487;BME280;7845;53.698;10.078;2023-07-29T08:36:31;99778.19;;;25.17;100.00
15487;BME280;7845;53.698;10.078;2023-07-29T08:38:56;99769.97;;;25.30;100.00
15487;BME280;7845;53.698;10.078;2023-07-29T08:41:27;99770.56;;;25.13;100.00
15487;BME280;7845;53.698;10.078;2023-07-29T08:44:22;99783.53;;;24.86;100.00
15487;BME280;7845;53.698;10.078;2023-07-29T08:46:48;99779.66;;;24.78;100.00
15487;BME280;7845;53.698;10.078;2023-07-29T08:49:15;99787.06;;;24.86;100.00
15487;BME280;7845;53.698;10.078;2023-07-29T08:51:45;99780.78;;;25.08;100.00
15487;BME280;7845;53.698;10.078;2023-07-29T08:54:13;99783.00;;;25.03;100.00
15487;BME280;7845;53.698;10.078;2023-07-29T08:56:43;99778.72;;;25.11;100.00
15487;BME280;7845;53.698;10.078;2023-07-29T08:59:09;99780.88;;;25.38;100.00
15487;BME280;7845;53.698;10.078;2023-07-29T09:01:37;99771.00;;;25.70;100.00
15487;BME280;7845;53.698;10.078;2023-07-29T09:04:03;99765.75;;;25.69;100.00
15487;BME280;7845;53.698;10.078;2023-07-29T09:06:29;99769.41;;;25.89;100.00
15487;BME280;7845;53.698;10.078;2023-07-29T09:08:55;99764.69;;;25.71;100.00
15487;BME280;7845;53.698;10.078;2023-07-29T09:11:22;99772.66;;;25.92;100.00
15487;BME280;7845;53.698;10.078;2023-07-29T09:13:48;99771.16;;;25.78;100.00
15487;BME280;7845;53.698;10.078;2023-07-29T09:16:14;99771.28;;;25.98;100.00
15487;BME280;7845;53.698;10.078;2023-07-29T09:18:41;99769.44;;;26.19;100.00
15487;BME280;7845;53.698;10.078;2023-07-29T09:21:06;99759.91;;;26.45;100.00
15487;BME280;7845;53.698;10.078;2023-07-29T09:23:44;99759.72;;;26.86;100.00
15487;BME280;7845;53.698;10.078;2023-07-29T09:26:10;99755.34;;;26.95;100.00
15487;BME280;7845;53.698;10.078;2023-07-29T09:28:39;99758.75;;;27.07;100.00
15487;BME280;7845;53.698;10.078;2023-07-29T09:31:06;99756.94;;;26.88;100.00
15487;BME280;7845;53.698;10.078;2023-07-29T09:33:35;99758.47;;;26.90;100.00
15487;BME280;7845;53.698;10.078;2023-07-29T09:36:11;99764.09;;;27.07;100.00
15487;BME280;7845;53.698;10.078;2023-07-29T09:38:37;99764.94;;;27.07;100.00
15487;BME280;7845;53.698;10.078;2023-07-29T09:41:03;99760.16;;;27.30;100.00
15487;BME280;7845;53.698;10.078;2023-07-29T09:43:31;99768.78;;;27.24;100.00
15487;BME280;7845;53.698;10.078;2023-07-29T09:46:00;99755.50;;;27.32;100.00
15487;BME280;7845;53.698;10.078;2023-07-29T09:48:27;99749.41;;;27.49;100.00
15487;BME280;7845;53.698;10.078;2023-07-29T09:50:54;99750.25;;;27.59;100.00
15487;BME280;7845;53.698;10.078;2023-07-29T09:53:20;99752.19;;;27.67;100.00
15487;BME280;7845;53.698;10.078;2023-07-29T09:55:48;99756.78;;;27.84;100.00
15487;BME280;7845;53.698;10.078;2023-07-29T09:58:21;99775.81;;;27.25;100.00
15487;BME280;7845;53.698;10.078;2023-07-29T10:00:51;99745.47;;;27.24;100.00
15487;BME280;7845;53.698;10.078;2023-07-29T10:03:17;99747.56;;;27.59;100.00
15487;BME280;7845;53.698;10.078;2023-07-29T10:05:44;99754.88;;;27.67;100.00
15487;BME280;7845;53.698;10.078;2023-07-29T10:08:10;99766.44;;;27.77;100.00
15487;BME280;7845;53.698;10.078;2023-07-29T10:10:35;99761.41;;;27.55;100.00
15487;BME280;7845;53.698;10.078;2023-07-29T10:13:01;99771.31;;;27.44;100.00
15487;BME280;7845;53.698;10.078;2023-07-29T10:15:28;99793.59;;;27.26;100.00
15487;BME280;7845;53.698;10.078;2023-07-29T10:17:54;99801.78;;;27.43;100.00
15487;BME280;7845;53.698;10.078;2023-07-29T10:20:19;99802.34;;;27.47;100.00
15487;BME280;7845;53.698;10.078;2023-07-29T10:22:47;99810.91;;;27.60;100.00
15487;BME280;7845;53.698;10.078;2023-07-29T10:25:17;99803.09;;;27.95;100.00
15487;BME280;7845;53.698;10.078;2023-07-29T10:27:47;99828.91;;;28.16;100.00
15487;BME280;7845;53.698;10.078;2023-07-29T10:30:14;99854.81;;;27.69;100.00
15487;BME280;7845;53.698;10.078;2023-07-29T10:32:42;99865.13;;;27.73;100.00
15487;BME280;7845;53.698;10.078;2023-07-29T10:35:13;99877.25;;;27.29;100.00
15487;BME280;7845;53.698;10.078;2023-07-29T10:37:39;99866.53;;;27.58;100.00
15487;BME280;7845;53.698;10.078;2023-07-29T10:40:09;99882.34;;;27.80;100.00
15487;BME280;7845;53.698;10.078;2023-07-29T10:42:36;99876.25;;;27.97;100.00
15487;BME280;7845;53.698;10.078;2023-07-29T10:45:19;99895.88;;;27.79;100.00
15487;BME280;7845;53.698;10.078;2023-07-29T10:47:45;99902.50;;;28.03;100.00
15487;BME280;7845;53.698;10.078;2023-07-29T10:50:20;99892.28;;;28.36;100.00
15487;BME280;7845;53.698;10.078;2023-07-29T10:52:49;99949.31;;;28.67;100.00
15487;BME280;7845;53.698;10.078;2023-07-29T10:57:51;99944.47;;;28.97;100.00
15487;BME280;7845;53.698;10.078;2023-07-29T11:00:19;99964.75;;;29.19;100.00
15487;BME280;7845;53.698;10.078;2023-07-29T11:02:58;99965.50;;;27.61;100.00
15487;BME280;7845;53.698;10.078;2023-07-29T11:05:26;99924.66;;;27.38;100.00
15487;BME280;7845;53.698;10.078;2023-07-29T11:07:51;99929.06;;;28.72;100.00
15487;BME280;7845;53.698;10.078;2023-07-29T11:10:17;99935.03;;;28.66;100.00
15487;BME280;7845;53.698;10.078;2023-07-29T11:12:49;99942.47;;;28.82;100.00
15487;BME280;7845;53.698;10.078;2023-07-29T11:15:28;99955.53;;;29.22;100.00
15487;BME280;7845;53.698;10.078;2023-07-29T11:17:55;99967.25;;;29.30;100.00
15487;BME280;7845;53.698;10.078;2023-07-29T11:20:30;99971.91;;;29.55;100.00
15487;BME280;7845;53.698;10.078;2023-07-29T11:23:01;99976.56;;;29.98;100.00
15487;BME280;7845;53.698;10.078;2023-07-29T11:25:29;99993.31;;;30.10;100.00
15487;BME280;7845;53.698;10.078;2023-07-29T11:27:57;100002.28;;;30.36;100.00
15487;BME280;7845;53.698;10.078;2023-07-29T11:30:22;100027.25;;;30.03;100.00
15487;BME280;7845;53.698;10.078;2023-07-29T11:32:49;100023.31;;;30.15;100.00
15487;BME280;7845;53.698;10.078;2023-07-29T11:35:16;100059.31;;;29.15;100.00
15487;BME280;7845;53.698;10.078;2023-07-29T11:37:44;100044.56;;;29.19;100.00
15487;BME280;7845;53.698;10.078;2023-07-29T11:40:14;100040.75;;;28.84;100.00
15487;BME280;7845;53.698;10.078;2023-07-29T11:42:40;100024.78;;;29.10;100.00
15487;BME280;7845;53.698;10.078;2023-07-29T11:45:06;100028.56;;;28.80;100.00
15487;BME280;7845;53.698;10.078;2023-07-29T11:47:33;100033.97;;;28.61;100.00
15487;BME280;7845;53.698;10.078;2023-07-29T11:50:05;100049.81;;;28.74;100.00
15487;BME280;7845;53.698;10.078;2023-07-29T11:52:32;100044.84;;;28.79;100.00
15487;BME280;7845;53.698;10.078;2023-07-29T11:54:58;100050.22;;;29.25;100.00
15487;BME280;7845;53.698;10.078;2023-07-29T11:57:23;100069.69;;;29.00;100.00
15487;BME280;7845;53.698;10.078;2023-07-29T11:59:49;100064.78;;;29.23;100.00
15487;BME280;7845;53.698;10.078;2023-07-29T12:02:23;100060.16;;;29.70;100.00
15487;BME280;7845;53.698;10.078;2023-07-29T12:04:51;100056.72;;;29.59;100.00
15487;BME280;7845;53.698;10.078;2023-07-29T12:07:17;100072.66;;;29.43;100.00
15487;BME280;7845;53.698;10.078;2023-07-29T12:09:44;100071.09;;;29.41;100.00
15487;BME280;7845;53.698;10.078;2023-07-29T12:12:10;100070.28;;;29.31;100.00
15487;BME280;7845;53.698;10.078;2023-07-29T12:14:35;100064.53;;;29.53;100.00
15487;BME280;7845;53.698;10.078;2023-07-29T12:17:02;100066.44;;;29.33;100.00
15487;BME280;7845;53.698;10.078;2023-07-29T12:19:38;100070.81;;;29.44;100.00
15487;BME280;7845;53.698;10.078;2023-07-29T12:22:07;100078.66;;;29.55;100.00
15487;BME280;7845;53.698;10.078;2023-07-29T12:24:39;100083.28;;;29.90;100.00
15487;BME280;7845;53.698;10.078;2023-07-29T12:27:05;100086.47;;;30.03;100.00
15487;BME280;7845;53.698;10.078;2023-07-29T12:29:31;100100.00;;;30.11;100.00
15487;BME280;7845;53.698;10.078;2023-07-29T12:31:58;100103.41;;;29.95;100.00
15487;BME280;7845;53.698;10.078;2023-07-29T12:34:26;100105.66;;;29.63;100.00
15487;BME280;7845;53.698;10.078;2023-07-29T12:36:52;100106.16;;;30.03;100.00
15487;BME280;7845;53.698;10.078;2023-07-29T12:39:29;100090.19;;;30.20;100.00
15487;BME280;7845;53.698;10.078;2023-07-29T12:41:56;100100.41;;;30.69;100.00
15487;BME280;7845;53.698;10.078;2023-07-29T12:44:23;100105.22;;;30.40;100.00
15487;BME280;7845;53.698;10.078;2023-07-29T12:46:49;100100.56;;;30.32;100.00
15487;BME280;7845;53.698;10.078;2023-07-29T12:49:14;100120.59;;;29.75;100.00
15487;BME280;7845;53.698;10.078;2023-07-29T12:51:40;100102.78;;;29.47;100.00
15487;BME280;7845;53.698;10.078;2023-07-29T12:54:06;100105.25;;;29.31;100.00
15487;BME280;7845;53.698;10.078;2023-07-29T12:56:32;100098.59;;;29.62;100.00
15487;BME280;7845;53.698;10.078;2023-07-29T12:58:58;100104.97;;;29.34;100.00